computrabajo.com.do alexa rank chart, computrabajo.com.do alexa rank daily changes

computrabajo.com.do alexa rank chart, computrabajo.com.do alexa rank daily changes

computrabajo.com.do
Actual rank:
619 715

RANK HISTORY

Date Rank Diff
2017/12/18 619 715 +17 560
2017/12/17 602 155 -11 062
2017/12/16 613 217 +18 767
2017/12/15 594 450 +19 721
2017/12/14 574 729 +12 845
2017/12/13 561 884 +4 378
2017/12/12 557 506 -11 231
2017/12/11 568 737 +50 397
2017/12/10 518 340 -8 767
2017/12/09 527 107 +19 448
2017/12/08 507 659 +1 774
2017/12/07 505 885 -10 105
2017/12/06 515 990 +4 773
2017/12/05 511 217 +2 640
2017/12/04 508 577 +15 765
2017/12/03 492 812 -5 776
2017/12/02 498 588 +2 275
2017/12/01 496 313 -12 100
2017/11/30 508 413 -2 932
2017/11/29 511 345 -2 854
2017/11/28 514 199 +9 288
2017/11/27 504 911 +38 851
2017/11/26 466 060 -6 112
2017/11/25 472 172 -8 677
2017/11/24 480 849 +1 101
2017/11/23 479 748 -2 985
2017/11/22 482 733 -2 607
2017/11/21 485 340 -6 007
2017/11/20 491 347 -6 647
2017/11/19 497 994 -238
2017/11/18 498 232 +4 504
2017/11/17 493 728 +1 150
2017/11/16 492 578 -5 823
2017/11/15 498 401 +17 332
2017/11/14 481 069 +531
2017/11/13 480 538 +12 873
2017/11/12 467 665 +21 635
2017/11/11 446 030 -37 089
2017/11/10 483 119 +7 033
2017/11/09 476 086 -11 378
2017/11/08 487 464 +38 217
2017/11/07 449 247 +7 080
2017/11/06 442 167 +2 679
2017/11/05 439 488 +13 435
2017/11/04 426 053 -12 203
2017/11/03 438 256 -1 505
2017/11/02 439 761 -8 250
2017/11/01 448 011 +8 594
2017/10/31 439 417 +1 844
2017/10/30 437 573 +15 529
2017/10/29 422 044 +9 815
2017/10/28 412 229 +5 780
2017/10/27 406 449 -18 933
2017/10/26 425 382 +3 554
2017/10/25 421 828 +13 175
2017/10/24 408 653 +11 936
2017/10/23 396 717 +6 316
2017/10/22 390 401 +8 407
2017/10/21 381 994 -2 374
2017/10/20 384 368 +12 822
2017/10/19 371 546

WIDGET FOR YOUR SITE

DOMAINS WITH THE NEAREST RANK

Domain Rank
bestoffers.space 619 710
karaganda-akimat.gov.kz 619 711
makromikrogrupa.hr 619 712
anygreece.com 619 713
nudephot.com 619 714
computrabajo.com.do 619 715
intrac.com.au 619 716
turonbank.uz 619 717
dashbuttondudes.com 619 718
inkjetfineart.it 619 719
drweb-cureit.ru 619 720

DOMAINS WITH THE NEAREST RANK BY TLD .com.do

Domain Rank
computrabajo.com.do 619 715
bdi.com.do 626 011